Aérodrome :
LOGIN :

S'inscrire | Disclaimer

   EN    FR    IT 

 










Légende :    VFR   VFR Marginal   IFR   IFR Intensif   IFR Très Intensif
Visi : 
Plafond : 
>= 8 km
>= 3000ft
5 à 8 km
1000 à 3000 ft
1500m à 5 km
500 à 1000 ft
800 à 1500m
200 à 500 ft
< 800m
< 200 ft
Symboles :   Orages  Brouillard  Fortes neiges  Fortes précipitations  Vent > 20 kt
SIGMETs :   Divers  Orages  Givrage  Turbulence  Onde Orograph.  Cendres Volcan.






- Altitude de l'aérodrome : 0 ft


ETEB - Ansbach Army Heliport

DERNIER METAR :
  • 180356Z AUTO 26004KT 9999 BKN100 BKN120 03/03 A3023 RMK AO2 SLP266 T00320032 $

METARs EXPIRÉS :
  • 180256Z AUTO 27006KT 9999 FEW014 BKN100 04/04 A3021 RMK AO2 SLP257 60000 T00440044 52019 $
  • 180211Z AUTO 28010KT 9999 SCT015 05/05 A3020 RMK AO2 SLP251 $
  • 180156Z AUTO 27010KT 9999 BKN015 BKN027 BKN047 OVC060 06/06 A3019 RMK AO2 RAE0059DZB0059E01 CIG 015V028 BKN015 V SCT SLP246 P0000 T00550055 $

Prévision TAF périmée.



MET'MAP, la Météo Aéronautique d'un coup d'oeil ! - Copyright ORBIFLY Décembre 2007 - Disclaimer

ORBIFLY MET'MAP TEAM :

Programmation & Développement : Alexandra Zaïnal
Sur une idée originale de : Baudouin d'Aumeries
Assistance à la programmation : Marc-Olivier Méhu
Soutien technique & logistique : Manuel Goepfert

Contact : metmap@orbifly.com




SOURCES & CREDITS :

   NOAA